EPWA/WAW METAR and TAF weather

Enter ICAO airport designator
Station Type Date Time Source
EPWA METAR 2018/06/25 02:00 UTC NOAA

EPWA 250200Z VRB02KT 9999 MIFG FEW004 SCT046 10/09 Q1015 TEMPO BKN005


Station Type Date Time Source
EPWA Decoded METAR 2018/06/25 02:00 UTC NOAA

Warszawa-Okecie, Poland (EPWA) 52-10N 020-58E 107M
Jun 24, 2018 - 10:00 PM EDT / 2018.06.25 0200 UTC
Wind: Variable at 2 MPH (2 KT):0
Visibility: greater than 7 mile(s):0
Sky conditions: partly cloudy
Weather: shallow fog
Temperature: 50 F (10 C)
Dew Point: 48 F (9 C)
Relative Humidity: 93%
Pressure (altimeter): 29.97 in. Hg (1015 hPa)
ob: EPWA 250200Z VRB02KT 9999 MIFG FEW004 SCT046 10/09 Q1015 TEMPO BKN005
cycle: 2

Station Type Date Time Source
EPWA TAF 2018/06/24 21:33 UTC NOAA

TAF EPWA 242030Z 2421/2521 28008KT 9999 SCT030 PROB40
TEMPO 2421/2422 SHRA BKN012 BKN025CB PROB40 2500/2506 BKN006
TEMPO 2508/2521 3000 SHRA BKN025CB


Example: see airport list